sensor_id;sensor_type;location;lat;lon;timestamp;pressure;altitude;pressure_sealevel;temperature;humidity
70976;BME280;58635;51.198;6.010;2023-07-13T00:01:45;101307.13;;;23.25;40.16
70976;BME280;58635;51.198;6.010;2023-07-13T00:04:20;101307.41;;;23.24;40.23
70976;BME280;58635;51.198;6.010;2023-07-13T00:06:47;101311.34;;;23.16;40.50
70976;BME280;58635;51.198;6.010;2023-07-13T00:09:14;101313.47;;;23.14;40.74
70976;BME280;58635;51.198;6.010;2023-07-13T00:11:42;101316.91;;;23.10;41.04
70976;BME280;58635;51.198;6.010;2023-07-13T00:14:10;101315.06;;;23.10;41.05
70976;BME280;58635;51.198;6.010;2023-07-13T00:16:38;101314.78;;;23.07;40.84
70976;BME280;58635;51.198;6.010;2023-07-13T00:19:05;101304.22;;;23.07;41.02
70976;BME280;58635;51.198;6.010;2023-07-13T00:21:32;101312.66;;;23.03;41.64
70976;BME280;58635;51.198;6.010;2023-07-13T00:23:59;101312.94;;;23.02;41.08
70976;BME280;58635;51.198;6.010;2023-07-13T00:26:27;101315.56;;;23.02;41.56
70976;BME280;58635;51.198;6.010;2023-07-13T00:28:53;101312.94;;;23.02;41.28
70976;BME280;58635;51.198;6.010;2023-07-13T00:31:20;101315.59;;;22.97;41.16
70976;BME280;58635;51.198;6.010;2023-07-13T00:33:46;101321.09;;;22.95;41.19
70976;BME280;58635;51.198;6.010;2023-07-13T00:36:13;101319.25;;;22.91;41.23
70976;BME280;58635;51.198;6.010;2023-07-13T00:38:39;101319.25;;;22.86;41.59
70976;BME280;58635;51.198;6.010;2023-07-13T00:41:06;101325.56;;;22.85;41.39
70976;BME280;58635;51.198;6.010;2023-07-13T00:43:32;101322.13;;;22.84;41.62
70976;BME280;58635;51.198;6.010;2023-07-13T00:48:30;101320.53;;;22.78;41.52
70976;BME280;58635;51.198;6.010;2023-07-13T00:50:58;101315.22;;;22.73;41.63
70976;BME280;58635;51.198;6.010;2023-07-13T00:53:28;101326.31;;;22.70;41.87
70976;BME280;58635;51.198;6.010;2023-07-13T00:55:57;101316.03;;;22.68;41.67
70976;BME280;58635;51.198;6.010;2023-07-13T00:58:26;101313.13;;;22.65;41.97
70976;BME280;58635;51.198;6.010;2023-07-13T01:00:53;101321.28;;;22.63;42.19
70976;BME280;58635;51.198;6.010;2023-07-13T01:03:20;101324.97;;;22.57;41.97
70976;BME280;58635;51.198;6.010;2023-07-13T01:05:48;101328.66;;;22.56;42.38
70976;BME280;58635;51.198;6.010;2023-07-13T01:08:16;101331.81;;;22.53;42.42
70976;BME280;58635;51.198;6.010;2023-07-13T01:11:02;101331.28;;;22.51;42.47
70976;BME280;58635;51.198;6.010;2023-07-13T01:13:29;101327.31;;;22.48;42.63
70976;BME280;58635;51.198;6.010;2023-07-13T01:15:57;101323.34;;;22.46;42.87
70976;BME280;58635;51.198;6.010;2023-07-13T01:18:26;101315.44;;;22.41;42.69
70976;BME280;58635;51.198;6.010;2023-07-13T01:23:23;101323.84;;;22.33;43.40
70976;BME280;58635;51.198;6.010;2023-07-13T01:25:52;101318.03;;;22.31;43.27
70976;BME280;58635;51.198;6.010;2023-07-13T01:28:19;101323.03;;;22.27;43.07
70976;BME280;58635;51.198;6.010;2023-07-13T01:30:46;101325.13;;;22.25;43.30
70976;BME280;58635;51.198;6.010;2023-07-13T01:33:15;101328.53;;;22.26;43.36
70976;BME280;58635;51.198;6.010;2023-07-13T01:35:44;101325.38;;;22.24;43.44
70976;BME280;58635;51.198;6.010;2023-07-13T01:38:16;101317.72;;;22.22;43.49
70976;BME280;58635;51.198;6.010;2023-07-13T01:40:43;101317.47;;;22.18;43.62
70976;BME280;58635;51.198;6.010;2023-07-13T01:43:10;101322.19;;;22.16;43.36
70976;BME280;58635;51.198;6.010;2023-07-13T01:45:36;101320.88;;;22.14;43.75
70976;BME280;58635;51.198;6.010;2023-07-13T01:48:03;101326.09;;;22.09;43.65
70976;BME280;58635;51.198;6.010;2023-07-13T01:50:29;101316.09;;;22.06;44.04
70976;BME280;58635;51.198;6.010;2023-07-13T01:52:56;101321.53;;;21.99;44.04
70976;BME280;58635;51.198;6.010;2023-07-13T01:55:22;101321.00;;;21.97;44.18
70976;BME280;58635;51.198;6.010;2023-07-13T01:57:49;101325.75;;;21.95;44.38
70976;BME280;58635;51.198;6.010;2023-07-13T02:00:16;101327.06;;;21.93;44.62
70976;BME280;58635;51.198;6.010;2023-07-13T02:02:43;101327.28;;;21.86;44.49
70976;BME280;58635;51.198;6.010;2023-07-13T02:05:11;101334.63;;;21.84;44.57
70976;BME280;58635;51.198;6.010;2023-07-13T02:07:38;101332.00;;;21.84;44.57
70976;BME280;58635;51.198;6.010;2023-07-13T02:10:06;101333.06;;;21.83;44.83
70976;BME280;58635;51.198;6.010;2023-07-13T02:12:34;101335.44;;;21.84;44.76
70976;BME280;58635;51.198;6.010;2023-07-13T02:15:01;101339.38;;;21.82;44.83
70976;BME280;58635;51.198;6.010;2023-07-13T02:17:27;101332.00;;;21.79;45.02
70976;BME280;58635;51.198;6.010;2023-07-13T02:19:54;101330.63;;;21.76;44.95
70976;BME280;58635;51.198;6.010;2023-07-13T02:22:21;101331.41;;;21.72;45.28
70976;BME280;58635;51.198;6.010;2023-07-13T02:24:48;101328.97;;;21.65;45.23
70976;BME280;58635;51.198;6.010;2023-07-13T02:27:15;101325.28;;;21.61;45.42
70976;BME280;58635;51.198;6.010;2023-07-13T02:29:42;101330.28;;;21.63;45.60
70976;BME280;58635;51.198;6.010;2023-07-13T02:32:09;101329.25;;;21.64;45.61
70976;BME280;58635;51.198;6.010;2023-07-13T02:34:35;101331.63;;;21.65;45.56
70976;BME280;58635;51.198;6.010;2023-07-13T02:37:02;101325.03;;;21.63;45.69
70976;BME280;58635;51.198;6.010;2023-07-13T02:39:28;101335.56;;;21.63;45.75
70976;BME280;58635;51.198;6.010;2023-07-13T02:41:55;101334.75;;;21.62;45.78
70976;BME280;58635;51.198;6.010;2023-07-13T02:44:21;101323.44;;;21.62;45.44
70976;BME280;58635;51.198;6.010;2023-07-13T02:46:48;101331.31;;;21.56;45.75
70976;BME280;58635;51.198;6.010;2023-07-13T02:49:14;101327.84;;;21.51;46.08
70976;BME280;58635;51.198;6.010;2023-07-13T02:51:41;101333.09;;;21.51;46.24
70976;BME280;58635;51.198;6.010;2023-07-13T02:54:07;101334.41;;;21.48;46.16
70976;BME280;58635;51.198;6.010;2023-07-13T02:56:34;101332.78;;;21.42;46.42
70976;BME280;58635;51.198;6.010;2023-07-13T02:59:01;101342.75;;;21.40;46.64
70976;BME280;58635;51.198;6.010;2023-07-13T03:01:28;101345.66;;;21.39;46.52
70976;BME280;58635;51.198;6.010;2023-07-13T03:03:55;101349.03;;;21.34;46.56
70976;BME280;58635;51.198;6.010;2023-07-13T03:06:22;101343.47;;;21.30;46.71
70976;BME280;58635;51.198;6.010;2023-07-13T03:08:49;101352.34;;;21.24;46.83
70976;BME280;58635;51.198;6.010;2023-07-13T03:11:17;101351.56;;;21.24;47.16
70976;BME280;58635;51.198;6.010;2023-07-13T03:13:45;101362.88;;;21.24;47.19
70976;BME280;58635;51.198;6.010;2023-07-13T03:16:13;101362.66;;;21.26;47.13
70976;BME280;58635;51.198;6.010;2023-07-13T03:18:42;101366.06;;;21.26;47.26
70976;BME280;58635;51.198;6.010;2023-07-13T03:21:09;101370.81;;;21.29;47.12
70976;BME280;58635;51.198;6.010;2023-07-13T03:23:35;101369.25;;;21.28;47.08
70976;BME280;58635;51.198;6.010;2023-07-13T03:26:06;101365.03;;;21.27;47.14
70976;BME280;58635;51.198;6.010;2023-07-13T03:28:33;101368.38;;;21.23;47.14
70976;BME280;58635;51.198;6.010;2023-07-13T03:31:01;101372.31;;;21.20;47.34
70976;BME280;58635;51.198;6.010;2023-07-13T03:33:28;101378.63;;;21.19;47.35
70976;BME280;58635;51.198;6.010;2023-07-13T03:35:55;101375.16;;;21.19;47.50
70976;BME280;58635;51.198;6.010;2023-07-13T03:38:21;101373.59;;;21.18;47.51
70976;BME280;58635;51.198;6.010;2023-07-13T03:40:48;101378.84;;;21.18;47.56
70976;BME280;58635;51.198;6.010;2023-07-13T03:43:15;101378.31;;;21.16;47.86
70976;BME280;58635;51.198;6.010;2023-07-13T03:45:41;101383.28;;;21.12;47.96
70976;BME280;58635;51.198;6.010;2023-07-13T03:48:08;101381.94;;;21.10;48.06
70976;BME280;58635;51.198;6.010;2023-07-13T03:50:34;101391.31;;;21.00;48.33
70976;BME280;58635;51.198;6.010;2023-07-13T03:53:00;101385.44;;;20.93;48.50
70976;BME280;58635;51.198;6.010;2023-07-13T03:55:27;101394.03;;;20.84;48.62
70976;BME280;58635;51.198;6.010;2023-07-13T03:57:58;101387.13;;;20.78;49.13
70976;BME280;58635;51.198;6.010;2023-07-13T04:00:25;101387.38;;;20.76;48.94
70976;BME280;58635;51.198;6.010;2023-07-13T04:02:51;101385.00;;;20.75;49.03
70976;BME280;58635;51.198;6.010;2023-07-13T04:05:18;101384.50;;;20.78;49.00
70976;BME280;58635;51.198;6.010;2023-07-13T04:07:45;101392.44;;;20.83;49.04
70976;BME280;58635;51.198;6.010;2023-07-13T04:10:11;101391.63;;;20.82;49.22
70976;BME280;58635;51.198;6.010;2023-07-13T04:12:37;101390.31;;;20.80;49.22
70976;BME280;58635;51.198;6.010;2023-07-13T04:15:04;101392.69;;;20.81;49.52
70976;BME280;58635;51.198;6.010;2023-07-13T04:17:31;101396.19;;;20.87;49.44
70976;BME280;58635;51.198;6.010;2023-07-13T04:19:57;101400.69;;;20.91;49.06
70976;BME280;58635;51.198;6.010;2023-07-13T04:22:24;101396.28;;;20.97;49.08
70976;BME280;58635;51.198;6.010;2023-07-13T04:24:50;101391.59;;;21.04;49.18
70976;BME280;58635;51.198;6.010;2023-07-13T04:27:17;101391.09;;;21.07;48.79
70976;BME280;58635;51.198;6.010;2023-07-13T04:29:43;101387.75;;;21.12;48.89
70976;BME280;58635;51.198;6.010;2023-07-13T04:32:10;101397.22;;;21.13;48.78
70976;BME280;58635;51.198;6.010;2023-07-13T04:34:36;101398.03;;;21.13;48.84
70976;BME280;58635;51.198;6.010;2023-07-13T04:37:03;101399.34;;;21.16;48.82
70976;BME280;58635;51.198;6.010;2023-07-13T04:39:30;101393.59;;;21.19;49.04
70976;BME280;58635;51.198;6.010;2023-07-13T04:41:57;101405.22;;;21.23;48.90
70976;BME280;58635;51.198;6.010;2023-07-13T04:44:23;101398.91;;;21.24;48.74
70976;BME280;58635;51.198;6.010;2023-07-13T04:46:50;101401.31;;;21.25;48.90
70976;BME280;58635;51.198;6.010;2023-07-13T04:49:16;101397.66;;;21.26;48.85
70976;BME280;58635;51.198;6.010;2023-07-13T04:51:42;101404.16;;;21.24;48.90
70976;BME280;58635;51.198;6.010;2023-07-13T04:54:09;101410.19;;;21.19;48.88
70976;BME280;58635;51.198;6.010;2023-07-13T04:56:35;101412.88;;;21.24;49.02
70976;BME280;58635;51.198;6.010;2023-07-13T04:59:02;101410.63;;;21.33;48.93
70976;BME280;58635;51.198;6.010;2023-07-13T05:01:28;101411.19;;;21.40;48.72
70976;BME280;58635;51.198;6.010;2023-07-13T05:03:54;101411.00;;;21.47;48.74
70976;BME280;58635;51.198;6.010;2023-07-13T05:06:23;101409.97;;;21.53;48.27
70976;BME280;58635;51.198;6.010;2023-07-13T05:08:50;101420.66;;;21.68;48.54
70976;BME280;58635;51.198;6.010;2023-07-13T05:11:17;101417.84;;;21.80;48.39
70976;BME280;58635;51.198;6.010;2023-07-13T05:13:44;101423.72;;;21.92;48.18
70976;BME280;58635;51.198;6.010;2023-07-13T05:16:10;101417.97;;;22.00;47.80
70976;BME280;58635;51.198;6.010;2023-07-13T05:18:37;101421.38;;;22.01;48.02
70976;BME280;58635;51.198;6.010;2023-07-13T05:21:09;101436.69;;;22.04;48.06
70976;BME280;58635;51.198;6.010;2023-07-13T05:23:36;101432.53;;;22.08;47.93
70976;BME280;58635;51.198;6.010;2023-07-13T05:26:03;101435.13;;;22.03;48.22
70976;BME280;58635;51.198;6.010;2023-07-13T05:28:31;101431.91;;;21.96;48.55
70976;BME280;58635;51.198;6.010;2023-07-13T05:30:58;101429.78;;;21.93;48.61
70976;BME280;58635;51.198;6.010;2023-07-13T05:33:25;101438.50;;;21.98;48.38
70976;BME280;58635;51.198;6.010;2023-07-13T05:35:52;101441.50;;;22.12;48.51
70976;BME280;58635;51.198;6.010;2023-07-13T05:38:18;101439.47;;;22.24;48.23
70976;BME280;58635;51.198;6.010;2023-07-13T05:40:45;101439.28;;;22.36;48.22
70976;BME280;58635;51.198;6.010;2023-07-13T05:43:12;101443.53;;;22.42;47.92
70976;BME280;58635;51.198;6.010;2023-07-13T05:45:39;101435.31;;;22.33;48.17
70976;BME280;58635;51.198;6.010;2023-07-13T05:48:06;101446.13;;;22.37;48.37
70976;BME280;58635;51.198;6.010;2023-07-13T05:50:32;101444.84;;;22.39;48.20
70976;BME280;58635;51.198;6.010;2023-07-13T05:52:59;101453.03;;;22.48;48.01
70976;BME280;58635;51.198;6.010;2023-07-13T05:55:25;101452.84;;;22.60;47.84
70976;BME280;58635;51.198;6.010;2023-07-13T05:57:52;101457.34;;;22.64;47.67
70976;BME280;58635;51.198;6.010;2023-07-13T06:00:18;101460.00;;;22.69;47.67
70976;BME280;58635;51.198;6.010;2023-07-13T06:02:45;101461.31;;;22.72;47.71
70976;BME280;58635;51.198;6.010;2023-07-13T06:05:11;101466.63;;;22.77;47.74
70976;BME280;58635;51.198;6.010;2023-07-13T06:07:38;101468.50;;;22.82;47.91
70976;BME280;58635;51.198;6.010;2023-07-13T06:10:05;101466.44;;;22.89;47.63
70976;BME280;58635;51.198;6.010;2023-07-13T06:12:31;101470.97;;;22.98;47.19
70976;BME280;58635;51.198;6.010;2023-07-13T06:14:58;101476.47;;;22.92;47.34
70976;BME280;58635;51.198;6.010;2023-07-13T06:17:24;101477.78;;;22.94;47.29
70976;BME280;58635;51.198;6.010;2023-07-13T06:19:51;101480.72;;;22.98;47.01
70976;BME280;58635;51.198;6.010;2023-07-13T06:22:17;101483.91;;;23.05;47.01
70976;BME280;58635;51.198;6.010;2023-07-13T06:24:44;101481.53;;;23.09;47.01
70976;BME280;58635;51.198;6.010;2023-07-13T06:27:10;101483.38;;;23.08;47.18
70976;BME280;58635;51.198;6.010;2023-07-13T06:29:36;101478.91;;;23.19;47.00
70976;BME280;58635;51.198;6.010;2023-07-13T06:32:03;101483.44;;;23.28;46.65
70976;BME280;58635;51.198;6.010;2023-07-13T06:34:30;101483.19;;;23.35;46.46
70976;BME280;58635;51.198;6.010;2023-07-13T06:36:56;101492.44;;;23.48;46.53
70976;BME280;58635;51.198;6.010;2023-07-13T06:39:23;101494.81;;;23.54;46.15
70976;BME280;58635;51.198;6.010;2023-07-13T06:41:49;101501.44;;;23.57;46.40
70976;BME280;58635;51.198;6.010;2023-07-13T06:44:16;101505.44;;;23.59;46.20
70976;BME280;58635;51.198;6.010;2023-07-13T06:46:42;101494.81;;;23.49;46.01
70976;BME280;58635;51.198;6.010;2023-07-13T06:49:09;101500.34;;;23.43;46.58
70976;BME280;58635;51.198;6.010;2023-07-13T06:51:35;101506.41;;;23.38;46.74
70976;BME280;58635;51.198;6.010;2023-07-13T06:54:02;101499.53;;;23.32;46.46
70976;BME280;58635;51.198;6.010;2023-07-13T06:56:29;101510.94;;;23.48;46.36
70976;BME280;58635;51.198;6.010;2023-07-13T06:58:55;101515.44;;;23.57;46.33
70976;BME280;58635;51.198;6.010;2023-07-13T07:01:22;101505.94;;;23.67;46.35
70976;BME280;58635;51.198;6.010;2023-07-13T07:03:48;101510.72;;;23.75;45.89
70976;BME280;58635;51.198;6.010;2023-07-13T07:06:20;101514.69;;;23.77;46.04
70976;BME280;58635;51.198;6.010;2023-07-13T07:08:52;101515.75;;;23.81;45.98
70976;BME280;58635;51.198;6.010;2023-07-13T07:11:21;101520.50;;;23.89;46.15
70976;BME280;58635;51.198;6.010;2023-07-13T07:13:49;101518.38;;;23.91;45.71
70976;BME280;58635;51.198;6.010;2023-07-13T07:16:17;101527.91;;;23.87;45.91
70976;BME280;58635;51.198;6.010;2023-07-13T07:18:44;101523.69;;;23.81;46.18
70976;BME280;58635;51.198;6.010;2023-07-13T07:21:11;101521.03;;;23.71;46.55
70976;BME280;58635;51.198;6.010;2023-07-13T07:23:37;101530.78;;;23.66;46.71
70976;BME280;58635;51.198;6.010;2023-07-13T07:26:04;101526.00;;;23.57;46.82
70976;BME280;58635;51.198;6.010;2023-07-13T07:28:31;101523.59;;;23.56;46.85
70976;BME280;58635;51.198;6.010;2023-07-13T07:30:58;101538.97;;;23.59;46.75
70976;BME280;58635;51.198;6.010;2023-07-13T07:33:25;101539.72;;;23.54;46.87
70976;BME280;58635;51.198;6.010;2023-07-13T07:35:51;101529.41;;;23.53;46.97
70976;BME280;58635;51.198;6.010;2023-07-13T07:38:18;101532.59;;;23.55;46.72
70976;BME280;58635;51.198;6.010;2023-07-13T07:40:44;101535.00;;;23.61;46.81
70976;BME280;58635;51.198;6.010;2023-07-13T07:43:12;101524.97;;;23.63;46.97
70976;BME280;58635;51.198;6.010;2023-07-13T07:45:39;101526.81;;;23.63;46.94
70976;BME280;58635;51.198;6.010;2023-07-13T07:48:07;101535.78;;;23.67;47.11
70976;BME280;58635;51.198;6.010;2023-07-13T07:50:33;101531.06;;;23.69;47.23
70976;BME280;58635;51.198;6.010;2023-07-13T07:53:00;101530.00;;;23.75;46.87
70976;BME280;58635;51.198;6.010;2023-07-13T07:55:28;101532.66;;;23.90;46.57
70976;BME280;58635;51.198;6.010;2023-07-13T07:57:56;101535.56;;;24.09;45.98
70976;BME280;58635;51.198;6.010;2023-07-13T08:00:23;101532.91;;;24.19;46.23
70976;BME280;58635;51.198;6.010;2023-07-13T08:02:49;101531.59;;;24.27;45.71
70976;BME280;58635;51.198;6.010;2023-07-13T08:05:16;101532.13;;;24.44;45.75
70976;BME280;58635;51.198;6.010;2023-07-13T08:07:43;101540.28;;;24.58;45.43
70976;BME280;58635;51.198;6.010;2023-07-13T08:10:10;101546.59;;;24.67;45.27
70976;BME280;58635;51.198;6.010;2023-07-13T08:12:50;101536.81;;;24.68;44.80
70976;BME280;58635;51.198;6.010;2023-07-13T08:15:17;101543.66;;;24.74;44.88
70976;BME280;58635;51.198;6.010;2023-07-13T08:17:43;101536.78;;;24.78;44.95
70976;BME280;58635;51.198;6.010;2023-07-13T08:20:10;101546.78;;;24.86;44.92
70976;BME280;58635;51.198;6.010;2023-07-13T08:22:36;101541.75;;;25.00;44.60
70976;BME280;58635;51.198;6.010;2023-07-13T08:25:03;101534.81;;;25.14;44.06
70976;BME280;58635;51.198;6.010;2023-07-13T08:27:30;101537.88;;;25.36;43.83
70976;BME280;58635;51.198;6.010;2023-07-13T08:29:56;101535.34;;;25.55;43.23
70976;BME280;58635;51.198;6.010;2023-07-13T08:32:23;101530.03;;;25.60;43.13
70976;BME280;58635;51.198;6.010;2023-07-13T08:34:50;101532.63;;;25.65;42.80
70976;BME280;58635;51.198;6.010;2023-07-13T08:37:17;101522.78;;;25.76;42.72
70976;BME280;58635;51.198;6.010;2023-07-13T08:39:44;101528.75;;;25.92;42.50
70976;BME280;58635;51.198;6.010;2023-07-13T08:42:41;101525.13;;;26.12;42.49
70976;BME280;58635;51.198;6.010;2023-07-13T08:47:40;101530.59;;;26.55;41.37
70976;BME280;58635;51.198;6.010;2023-07-13T08:50:14;101532.50;;;26.49;41.30
70976;BME280;58635;51.198;6.010;2023-07-13T08:52:43;101530.47;;;26.41;41.17
70976;BME280;58635;51.198;6.010;2023-07-13T08:55:15;101538.16;;;26.42;40.92
70976;BME280;58635;51.198;6.010;2023-07-13T08:57:45;101534.41;;;26.43;41.23
70976;BME280;58635;51.198;6.010;2023-07-13T09:00:13;101530.31;;;26.56;41.38
70976;BME280;58635;51.198;6.010;2023-07-13T09:05:15;101527.34;;;27.05;40.29
70976;BME280;58635;51.198;6.010;2023-07-13T09:10:42;101534.75;;;27.27;39.68
70976;BME280;58635;51.198;6.010;2023-07-13T09:15:47;101530.28;;;27.23;39.47
70976;BME280;58635;51.198;6.010;2023-07-13T09:18:35;101527.13;;;27.21;39.50
70976;BME280;58635;51.198;6.010;2023-07-13T09:21:14;101531.59;;;27.25;39.53
70976;BME280;58635;51.198;6.010;2023-07-13T09:23:42;101525.19;;;27.26;39.57
70976;BME280;58635;51.198;6.010;2023-07-13T09:26:19;101529.59;;;27.36;39.25
70976;BME280;58635;51.198;6.010;2023-07-13T09:28:49;101527.03;;;27.45;38.84
70976;BME280;58635;51.198;6.010;2023-07-13T09:31:42;101530.72;;;27.49;38.82
70976;BME280;58635;51.198;6.010;2023-07-13T09:34:13;101525.81;;;27.75;38.45
70976;BME280;58635;51.198;6.010;2023-07-13T09:36:39;101523.34;;;27.97;37.99
70976;BME280;58635;51.198;6.010;2023-07-13T09:41:45;101531.53;;;28.14;37.38
70976;BME280;58635;51.198;6.010;2023-07-13T09:44:16;101533.88;;;28.16;37.88
70976;BME280;58635;51.198;6.010;2023-07-13T09:46:46;101535.69;;;28.20;37.39
70976;BME280;58635;51.198;6.010;2023-07-13T09:49:13;101537.56;;;28.20;37.29
70976;BME280;58635;51.198;6.010;2023-07-13T09:51:42;101534.28;;;28.09;37.59
70976;BME280;58635;51.198;6.010;2023-07-13T09:54:21;101529.84;;;28.05;37.34
70976;BME280;58635;51.198;6.010;2023-07-13T09:56:48;101533.50;;;28.09;37.38
70976;BME280;58635;51.198;6.010;2023-07-13T09:59:26;101539.44;;;28.19;36.96
70976;BME280;58635;51.198;6.010;2023-07-13T10:01:53;101541.00;;;28.20;37.09
70976;BME280;58635;51.198;6.010;2023-07-13T10:04:27;101527.13;;;28.23;37.10
70976;BME280;58635;51.198;6.010;2023-07-13T10:07:05;101537.78;;;28.37;36.75
70976;BME280;58635;51.198;6.010;2023-07-13T10:09:32;101546.88;;;28.36;36.66
70976;BME280;58635;51.198;6.010;2023-07-13T10:11:59;101542.94;;;28.34;36.69
70976;BME280;58635;51.198;6.010;2023-07-13T10:14:25;101542.16;;;28.47;36.60
70976;BME280;58635;51.198;6.010;2023-07-13T10:16:58;101543.72;;;28.62;36.21
70976;BME280;58635;51.198;6.010;2023-07-13T10:19:29;101549.13;;;28.70;36.15
70976;BME280;58635;51.198;6.010;2023-07-13T10:22:23;101548.44;;;28.65;35.60
70976;BME280;58635;51.198;6.010;2023-07-13T10:24:47;101547.56;;;28.42;35.73
70976;BME280;58635;51.198;6.010;2023-07-13T10:27:34;101542.13;;;28.33;35.99
70976;BME280;58635;51.198;6.010;2023-07-13T10:32:38;101545.00;;;28.37;36.55
70976;BME280;58635;51.198;6.010;2023-07-13T10:35:10;101546.69;;;28.46;36.05
70976;BME280;58635;51.198;6.010;2023-07-13T10:37:59;101538.81;;;28.55;36.36
70976;BME280;58635;51.198;6.010;2023-07-13T10:40:33;101544.31;;;28.59;36.08
70976;BME280;58635;51.198;6.010;2023-07-13T10:43:04;101552.50;;;28.62;35.29
70976;BME280;58635;51.198;6.010;2023-07-13T10:45:35;101532.78;;;28.63;35.37
70976;BME280;58635;51.198;6.010;2023-07-13T10:48:03;101546.19;;;28.72;35.28
70976;BME280;58635;51.198;6.010;2023-07-13T10:50:32;101541.94;;;28.84;35.50
70976;BME280;58635;51.198;6.010;2023-07-13T10:53:38;101552.28;;;29.00;35.08
70976;BME280;58635;51.198;6.010;2023-07-13T10:56:06;101547.63;;;29.19;34.71
70976;BME280;58635;51.198;6.010;2023-07-13T10:58:36;101544.50;;;29.39;34.43
70976;BME280;58635;51.198;6.010;2023-07-13T11:04:00;101537.56;;;29.75;33.88
70976;BME280;58635;51.198;6.010;2023-07-13T11:22:52;101544.59;;;30.24;32.38
70976;BME280;58635;51.198;6.010;2023-07-13T11:25:28;101547.84;;;30.52;31.90
70976;BME280;58635;51.198;6.010;2023-07-13T11:30:48;101549.16;;;30.63;30.91
70976;BME280;58635;51.198;6.010;2023-07-13T11:41:13;101544.41;;;29.67;32.58
70976;BME280;58635;51.198;6.010;2023-07-13T11:43:41;101543.56;;;29.58;32.09
70976;BME280;58635;51.198;6.010;2023-07-13T11:46:20;101540.06;;;29.49;32.57
70976;BME280;58635;51.198;6.010;2023-07-13T11:48:48;101541.06;;;29.39;32.36
70976;BME280;58635;51.198;6.010;2023-07-13T11:51:20;101538.63;;;29.29;32.47
70976;BME280;58635;51.198;6.010;2023-07-13T11:53:50;101533.03;;;29.17;32.62
70976;BME280;58635;51.198;6.010;2023-07-13T11:56:18;101536.22;;;29.05;32.29
70976;BME280;58635;51.198;6.010;2023-07-13T11:58:44;101533.81;;;29.17;32.77
70976;BME280;58635;51.198;6.010;2023-07-13T12:01:21;101530.19;;;29.49;31.63
70976;BME280;58635;51.198;6.010;2023-07-13T12:03:49;101522.22;;;29.80;31.73
70976;BME280;58635;51.198;6.010;2023-07-13T12:06:28;101516.53;;;30.04;31.04
70976;BME280;58635;51.198;6.010;2023-07-13T12:09:00;101519.22;;;30.04;30.46
70976;BME280;58635;51.198;6.010;2023-07-13T12:11:27;101533.59;;;29.94;31.06
70976;BME280;58635;51.198;6.010;2023-07-13T12:13:54;101536.81;;;29.83;30.77
70976;BME280;58635;51.198;6.010;2023-07-13T12:16:29;101537.66;;;29.61;31.34
70976;BME280;58635;51.198;6.010;2023-07-13T12:19:00;101533.53;;;29.41;31.58
70976;BME280;58635;51.198;6.010;2023-07-13T12:21:33;101529.66;;;29.25;31.75
70976;BME280;58635;51.198;6.010;2023-07-13T12:24:00;101534.25;;;28.97;32.28
70976;BME280;58635;51.198;6.010;2023-07-13T12:26:29;101527.03;;;28.83;32.25
70976;BME280;58635;51.198;6.010;2023-07-13T12:28:59;101543.72;;;28.62;32.57
70976;BME280;58635;51.198;6.010;2023-07-13T12:34:08;101552.00;;;28.33;33.35
70976;BME280;58635;51.198;6.010;2023-07-13T12:36:37;101545.09;;;28.32;32.71
70976;BME280;58635;51.198;6.010;2023-07-13T12:39:25;101542.03;;;28.38;33.11
70976;BME280;58635;51.198;6.010;2023-07-13T12:42:16;101539.97;;;28.49;32.88
70976;BME280;58635;51.198;6.010;2023-07-13T13:01:34;101539.22;;;29.62;32.53
70976;BME280;58635;51.198;6.010;2023-07-13T13:04:03;101552.56;;;29.62;32.46
70976;BME280;58635;51.198;6.010;2023-07-13T13:06:35;101536.19;;;29.55;32.89
70976;BME280;58635;51.198;6.010;2023-07-13T13:09:03;101540.78;;;29.63;32.81
70976;BME280;58635;51.198;6.010;2023-07-13T13:11:31;101546.13;;;29.85;31.82
70976;BME280;58635;51.198;6.010;2023-07-13T13:13:58;101539.97;;;30.07;31.49
70976;BME280;58635;51.198;6.010;2023-07-13T13:16:32;101545.34;;;30.16;31.40
70976;BME280;58635;51.198;6.010;2023-07-13T13:21:48;101534.03;;;30.10;31.34
70976;BME280;58635;51.198;6.010;2023-07-13T13:24:19;101541.56;;;30.08;31.36
70976;BME280;58635;51.198;6.010;2023-07-13T13:26:47;101553.63;;;30.06;31.82
70976;BME280;58635;51.198;6.010;2023-07-13T13:29:17;101551.69;;;29.97;32.16
70976;BME280;58635;51.198;6.010;2023-07-13T13:31:44;101561.03;;;29.86;32.43
70976;BME280;58635;51.198;6.010;2023-07-13T13:34:12;101565.44;;;29.68;33.13
70976;BME280;58635;51.198;6.010;2023-07-13T13:36:41;101551.00;;;29.47;34.28
70976;BME280;58635;51.198;6.010;2023-07-13T13:39:33;101558.53;;;29.31;34.38
70976;BME280;58635;51.198;6.010;2023-07-13T13:42:00;101562.94;;;29.14;34.66
70976;BME280;58635;51.198;6.010;2023-07-13T13:44:29;101554.75;;;28.96;34.79
70976;BME280;58635;51.198;6.010;2023-07-13T13:46:56;101560.88;;;28.83;34.86
70976;BME280;58635;51.198;6.010;2023-07-13T13:49:27;101564.50;;;28.73;35.08
70976;BME280;58635;51.198;6.010;2023-07-13T13:51:54;101556.41;;;28.65;35.55
70976;BME280;58635;51.198;6.010;2023-07-13T13:54:22;101567.19;;;28.60;35.20
70976;BME280;58635;51.198;6.010;2023-07-13T13:56:51;101569.72;;;28.51;35.19
70976;BME280;58635;51.198;6.010;2023-07-13T13:59:18;101571.00;;;28.40;34.84
70976;BME280;58635;51.198;6.010;2023-07-13T14:01:46;101579.16;;;28.30;35.02
70976;BME280;58635;51.198;6.010;2023-07-13T14:04:21;101572.44;;;28.18;35.08
70976;BME280;58635;51.198;6.010;2023-07-13T14:06:48;101576.75;;;28.14;34.93
70976;BME280;58635;51.198;6.010;2023-07-13T14:09:17;101575.66;;;28.15;35.00
70976;BME280;58635;51.198;6.010;2023-07-13T14:11:45;101583.16;;;28.13;35.26